Time;durP1;ratioP1;P1;durP2;ratioP2;P2;SDS_P1;SDS_P2;PMS_P1;PMS_P2;Temp;Humidity;BMP_temperature;BMP_pressure;BME280_temperature;BME280_humidity;BME280_pressure;Samples;Min_cycle;Max_cycle;Signal;HPM_P1;HPM_P2
2022/03/14 00:00:46;;;;;;;24.85;10.73;;;;;;;;;;5082709;28;20024;-48
2022/03/14 00:03:13;;;;;;;26.88;11.07;;;;;;;;;;5079286;28;20119;-47
2022/03/14 00:05:40;;;;;;;20.75;9.90;;;;;;;;;;5075017;28;20020;-46
2022/03/14 00:08:06;;;;;;;24.63;11.57;;;;;;;;;;5086065;28;20028;-49
2022/03/14 00:10:34;;;;;;;21.30;10.38;;;;;;;;;;5085594;28;20031;-46
2022/03/14 00:13:01;;;;;;;23.80;11.07;;;;;;;;;;5083532;28;20035;-46
2022/03/14 00:15:30;;;;;;;25.25;10.73;;;;;;;;;;5077270;28;20027;-45
2022/03/14 00:17:57;;;;;;;28.30;11.52;;;;;;;;;;5082486;28;20719;-45
2022/03/14 00:20:24;;;;;;;23.67;10.50;;;;;;;;;;5081144;28;20106;-45
2022/03/14 00:22:50;;;;;;;25.23;10.27;;;;;;;;;;5081215;28;20062;-46
2022/03/14 00:25:16;;;;;;;21.98;10.30;;;;;;;;;;5081481;28;20476;-45
2022/03/14 00:27:42;;;;;;;24.20;11.30;;;;;;;;;;5085061;28;20051;-45
2022/03/14 00:30:12;;;;;;;24.65;11.07;;;;;;;;;;5084534;28;20035;-46
2022/03/14 00:32:39;;;;;;;27.35;11.13;;;;;;;;;;5087092;28;20059;-46
2022/03/14 00:35:07;;;;;;;29.80;11.30;;;;;;;;;;5083501;28;20028;-46
2022/03/14 00:37:33;;;;;;;24.73;10.00;;;;;;;;;;5085693;28;20471;-46
2022/03/14 00:39:59;;;;;;;26.50;11.50;;;;;;;;;;5082402;28;20044;-46
2022/03/14 00:42:25;;;;;;;24.92;10.52;;;;;;;;;;5078470;28;20033;-46
2022/03/14 00:44:51;;;;;;;32.72;11.18;;;;;;;;;;5078629;28;20056;-48
2022/03/14 00:47:17;;;;;;;30.42;11.45;;;;;;;;;;5088626;28;20067;-48
2022/03/14 00:49:44;;;;;;;22.80;9.95;;;;;;;;;;5093314;28;20105;-47
2022/03/14 00:52:11;;;;;;;24.13;10.05;;;;;;;;;;5080161;28;20040;-46
2022/03/14 00:54:37;;;;;;;23.77;9.93;;;;;;;;;;5089638;28;20094;-45
2022/03/14 00:57:03;;;;;;;24.80;10.73;;;;;;;;;;5087411;28;20027;-48
2022/03/14 00:59:29;;;;;;;27.50;10.48;;;;;;;;;;5079012;28;20572;-45
2022/03/14 01:01:56;;;;;;;23.08;9.93;;;;;;;;;;5082999;28;20024;-45
2022/03/14 01:04:22;;;;;;;28.08;10.43;;;;;;;;;;5086880;28;20032;-45
2022/03/14 01:06:48;;;;;;;23.85;11.15;;;;;;;;;;5090384;28;20017;-46
2022/03/14 01:09:14;;;;;;;20.35;10.40;;;;;;;;;;5089051;28;20032;-47
2022/03/14 01:11:40;;;;;;;21.98;10.25;;;;;;;;;;5086058;28;20028;-45
2022/03/14 01:14:06;;;;;;;25.98;10.20;;;;;;;;;;5084746;28;20497;-45
2022/03/14 01:16:32;;;;;;;25.38;10.52;;;;;;;;;;5088689;28;20024;-45
2022/03/14 01:18:59;;;;;;;21.77;9.85;;;;;;;;;;5078398;28;20603;-45
2022/03/14 01:21:25;;;;;;;27.95;10.27;;;;;;;;;;5080384;28;20491;-46
2022/03/14 01:23:51;;;;;;;22.73;9.90;;;;;;;;;;5084296;28;20041;-45
2022/03/14 01:26:17;;;;;;;29.25;11.32;;;;;;;;;;5077761;28;20031;-46
2022/03/14 01:28:43;;;;;;;27.73;10.52;;;;;;;;;;5086948;28;20110;-49
2022/03/14 01:31:09;;;;;;;25.83;10.57;;;;;;;;;;5079820;28;20028;-46
2022/03/14 01:33:35;;;;;;;27.95;10.95;;;;;;;;;;5082435;28;20451;-45
2022/03/14 01:36:01;;;;;;;25.60;10.18;;;;;;;;;;5082332;28;20125;-46
2022/03/14 01:38:27;;;;;;;26.17;10.85;;;;;;;;;;5076261;28;20048;-46
2022/03/14 01:40:53;;;;;;;26.65;11.40;;;;;;;;;;5088038;28;20028;-45
2022/03/14 01:43:21;;;;;;;24.75;11.15;;;;;;;;;;5079589;28;20050;-47
2022/03/14 01:45:48;;;;;;;28.73;10.93;;;;;;;;;;5082508;28;20515;-45
2022/03/14 01:48:14;;;;;;;28.48;11.50;;;;;;;;;;5083148;28;20119;-47
2022/03/14 01:50:40;;;;;;;30.95;11.45;;;;;;;;;;5081355;28;20044;-47
2022/03/14 01:53:06;;;;;;;26.15;11.25;;;;;;;;;;5087150;28;20048;-47
2022/03/14 01:55:32;;;;;;;24.15;10.02;;;;;;;;;;5087696;28;20032;-47
2022/03/14 01:57:59;;;;;;;24.13;11.00;;;;;;;;;;5085397;28;20455;-47
2022/03/14 02:00:25;;;;;;;27.83;10.48;;;;;;;;;;5088574;28;20361;-50
2022/03/14 02:02:51;;;;;;;23.63;10.02;;;;;;;;;;5083799;28;20119;-47
2022/03/14 02:05:19;;;;;;;26.63;10.85;;;;;;;;;;5085844;28;20429;-47
2022/03/14 02:07:45;;;;;;;22.63;10.93;;;;;;;;;;5078897;28;20115;-47
2022/03/14 02:10:11;;;;;;;24.40;10.27;;;;;;;;;;5078131;28;20032;-47
2022/03/14 02:12:37;;;;;;;25.27;10.85;;;;;;;;;;5078252;28;20036;-48
2022/03/14 02:15:03;;;;;;;27.77;11.88;;;;;;;;;;5087942;28;20107;-51
2022/03/14 02:17:29;;;;;;;23.15;11.10;;;;;;;;;;5081516;28;20020;-47
2022/03/14 02:19:58;;;;;;;24.10;10.05;;;;;;;;;;5085261;28;20021;-48
2022/03/14 02:22:24;;;;;;;22.20;10.35;;;;;;;;;;5090037;28;20024;-49
2022/03/14 02:24:50;;;;;;;25.65;10.63;;;;;;;;;;5080125;28;20043;-47
2022/03/14 02:27:19;;;;;;;22.80;9.68;;;;;;;;;;5077917;28;20029;-48
2022/03/14 02:29:45;;;;;;;24.50;11.05;;;;;;;;;;5081902;28;20185;-47
2022/03/14 02:32:11;;;;;;;26.95;10.98;;;;;;;;;;5080300;28;20473;-50
2022/03/14 02:34:37;;;;;;;26.80;10.75;;;;;;;;;;5086355;28;20032;-47
2022/03/14 02:37:04;;;;;;;25.58;10.38;;;;;;;;;;5084094;28;20024;-47
2022/03/14 02:39:32;;;;;;;24.10;11.27;;;;;;;;;;5087794;28;20412;-47
2022/03/14 02:41:58;;;;;;;25.17;10.77;;;;;;;;;;5081258;28;20446;-47
2022/03/14 02:44:24;;;;;;;26.17;11.10;;;;;;;;;;5088790;28;20106;-48
2022/03/14 02:46:50;;;;;;;22.55;10.05;;;;;;;;;;5091324;28;20024;-48
2022/03/14 02:49:16;;;;;;;30.52;10.70;;;;;;;;;;5076942;28;20027;-47
2022/03/14 02:51:42;;;;;;;21.98;10.57;;;;;;;;;;5074231;28;20024;-48
2022/03/14 02:54:09;;;;;;;27.92;11.52;;;;;;;;;;5082324;28;20048;-48
2022/03/14 02:56:36;;;;;;;25.10;10.95;;;;;;;;;;5078446;28;20020;-47
2022/03/14 02:59:02;;;;;;;24.65;10.80;;;;;;;;;;5088085;28;20030;-47
2022/03/14 03:01:28;;;;;;;24.67;10.77;;;;;;;;;;5077415;28;20590;-47
2022/03/14 03:03:54;;;;;;;21.08;9.95;;;;;;;;;;5080346;28;20032;-50
2022/03/14 03:06:23;;;;;;;22.63;9.70;;;;;;;;;;5079507;28;20087;-47
2022/03/14 03:08:53;;;;;;;24.40;10.27;;;;;;;;;;5083599;28;20520;-47
2022/03/14 03:11:20;;;;;;;24.85;10.65;;;;;;;;;;5077897;28;20480;-47
2022/03/14 03:13:49;;;;;;;25.17;10.40;;;;;;;;;;5083645;28;20073;-51
2022/03/14 03:16:16;;;;;;;24.45;10.98;;;;;;;;;;5084132;28;20032;-48
2022/03/14 03:18:43;;;;;;;25.40;10.32;;;;;;;;;;5080170;28;20017;-48
2022/03/14 03:21:09;;;;;;;24.08;10.18;;;;;;;;;;5081150;28;21268;-47
2022/03/14 03:23:35;;;;;;;23.55;9.95;;;;;;;;;;5079039;28;20104;-47
2022/03/14 03:26:02;;;;;;;28.17;10.23;;;;;;;;;;5077673;28;21777;-47
2022/03/14 03:28:29;;;;;;;22.98;9.90;;;;;;;;;;5081233;28;20065;-47
2022/03/14 03:30:55;;;;;;;21.90;10.43;;;;;;;;;;5080007;28;20468;-47
2022/03/14 03:33:21;;;;;;;27.67;11.13;;;;;;;;;;5079698;28;20029;-47
2022/03/14 03:35:47;;;;;;;27.85;10.32;;;;;;;;;;5083141;28;20016;-47
2022/03/14 03:38:13;;;;;;;25.15;9.93;;;;;;;;;;5086025;28;20055;-47
2022/03/14 03:40:39;;;;;;;23.23;9.88;;;;;;;;;;5087496;28;20033;-48
2022/03/14 03:43:05;;;;;;;21.20;9.48;;;;;;;;;;5084546;28;20036;-47
2022/03/14 03:45:31;;;;;;;27.77;10.05;;;;;;;;;;5079740;28;20031;-48
2022/03/14 03:47:57;;;;;;;28.10;10.48;;;;;;;;;;5080074;28;20467;-47
2022/03/14 03:50:23;;;;;;;24.10;10.75;;;;;;;;;;5078532;28;20365;-47
2022/03/14 03:52:49;;;;;;;25.88;10.68;;;;;;;;;;5079910;28;20076;-48
2022/03/14 03:55:15;;;;;;;29.73;10.57;;;;;;;;;;5079914;28;20073;-48
2022/03/14 03:57:41;;;;;;;22.38;9.10;;;;;;;;;;5083066;28;20037;-50
2022/03/14 04:00:09;;;;;;;22.98;10.80;;;;;;;;;;5087165;28;20081;-47
2022/03/14 04:02:39;;;;;;;21.55;10.40;;;;;;;;;;5075553;28;20523;-49
2022/03/14 04:05:05;;;;;;;23.45;10.73;;;;;;;;;;5091555;28;20483;-50
2022/03/14 04:07:32;;;;;;;24.10;9.90;;;;;;;;;;5080565;28;20056;-49
2022/03/14 04:09:59;;;;;;;27.27;11.00;;;;;;;;;;5091560;28;20032;-47
2022/03/14 04:12:28;;;;;;;25.42;10.95;;;;;;;;;;5085188;28;20456;-49
2022/03/14 04:14:58;;;;;;;25.25;9.75;;;;;;;;;;5092039;28;20016;-49
2022/03/14 04:17:25;;;;;;;24.70;10.02;;;;;;;;;;5086681;28;20024;-47
2022/03/14 04:19:52;;;;;;;27.20;9.55;;;;;;;;;;5083927;28;20480;-48
2022/03/14 04:22:19;;;;;;;24.33;9.65;;;;;;;;;;5081655;28;20449;-47
2022/03/14 04:24:45;;;;;;;22.33;9.90;;;;;;;;;;5081149;28;20761;-48
2022/03/14 04:27:11;;;;;;;26.05;9.65;;;;;;;;;;5092079;28;20028;-47
2022/03/14 04:29:37;;;;;;;22.35;9.57;;;;;;;;;;5090489;28;20023;-47
2022/03/14 04:32:03;;;;;;;27.10;10.75;;;;;;;;;;5081880;28;20121;-47
2022/03/14 04:34:29;;;;;;;21.58;9.20;;;;;;;;;;5084753;28;20099;-48
2022/03/14 04:36:55;;;;;;;21.50;10.15;;;;;;;;;;5087528;28;20032;-48
2022/03/14 04:39:21;;;;;;;21.95;9.57;;;;;;;;;;5081669;28;20032;-47
2022/03/14 04:41:47;;;;;;;21.73;10.18;;;;;;;;;;5074539;28;20036;-48
2022/03/14 04:44:13;;;;;;;23.60;10.20;;;;;;;;;;5093421;28;20368;-50
2022/03/14 04:46:40;;;;;;;24.23;9.93;;;;;;;;;;5084354;28;20024;-49
2022/03/14 04:49:08;;;;;;;24.65;10.20;;;;;;;;;;5079933;28;20127;-49
2022/03/14 04:51:34;;;;;;;25.40;10.45;;;;;;;;;;5076531;28;20025;-46
2022/03/14 04:54:00;;;;;;;25.20;10.20;;;;;;;;;;5088967;28;20525;-49
2022/03/14 04:56:26;;;;;;;26.77;11.00;;;;;;;;;;5082915;28;20047;-47
2022/03/14 04:58:52;;;;;;;21.67;9.40;;;;;;;;;;5082135;28;20103;-47
2022/03/14 05:01:23;;;;;;;20.00;8.98;;;;;;;;;;5078969;28;20024;-53
2022/03/14 05:03:49;;;;;;;21.88;9.60;;;;;;;;;;5085460;28;20032;-47
2022/03/14 05:06:16;;;;;;;24.50;9.98;;;;;;;;;;5084208;28;20111;-47
2022/03/14 05:08:42;;;;;;;25.73;10.40;;;;;;;;;;5075603;28;20120;-47
2022/03/14 05:11:09;;;;;;;20.73;9.13;;;;;;;;;;5086470;28;20119;-47
2022/03/14 05:13:35;;;;;;;26.25;10.32;;;;;;;;;;5081489;28;20111;-47
2022/03/14 05:16:01;;;;;;;21.92;10.88;;;;;;;;;;5085517;28;20119;-47
2022/03/14 05:18:27;;;;;;;20.50;9.40;;;;;;;;;;5080752;28;20024;-48
2022/03/14 05:20:53;;;;;;;22.13;9.93;;;;;;;;;;5077426;28;20027;-48
2022/03/14 05:23:20;;;;;;;24.23;9.90;;;;;;;;;;5082840;28;20024;-47
2022/03/14 05:25:46;;;;;;;24.27;10.55;;;;;;;;;;5086055;28;20482;-47
2022/03/14 05:28:12;;;;;;;23.92;9.50;;;;;;;;;;5078588;28;20093;-47
2022/03/14 05:30:38;;;;;;;27.08;10.23;;;;;;;;;;5075313;28;20544;-47
2022/03/14 05:33:04;;;;;;;23.80;9.48;;;;;;;;;;5084917;28;20454;-48
2022/03/14 05:35:30;;;;;;;22.58;10.18;;;;;;;;;;5089218;28;20020;-47
2022/03/14 05:37:56;;;;;;;24.50;10.43;;;;;;;;;;5077608;28;20028;-50
2022/03/14 05:40:22;;;;;;;24.73;11.05;;;;;;;;;;5081604;28;20035;-48
2022/03/14 05:42:49;;;;;;;40.08;27.95;;;;;;;;;;5081168;28;21808;-48
2022/03/14 05:45:16;;;;;;;41.92;22.30;;;;;;;;;;5083250;28;20036;-47
2022/03/14 05:47:42;;;;;;;30.73;14.05;;;;;;;;;;5080524;28;20039;-47
2022/03/14 05:50:08;;;;;;;52.38;37.03;;;;;;;;;;5077221;28;20034;-47
2022/03/14 05:52:34;;;;;;;31.73;15.02;;;;;;;;;;5082082;28;20048;-47
2022/03/14 05:55:00;;;;;;;48.28;30.48;;;;;;;;;;5075159;28;20032;-47
2022/03/14 05:57:26;;;;;;;33.35;15.45;;;;;;;;;;5079885;28;20094;-48
2022/03/14 05:59:52;;;;;;;34.95;11.57;;;;;;;;;;5076795;28;20024;-48
2022/03/14 06:02:22;;;;;;;30.27;15.05;;;;;;;;;;5085439;28;20081;-47
2022/03/14 06:04:49;;;;;;;26.00;11.88;;;;;;;;;;5086006;28;20089;-46
2022/03/14 06:07:15;;;;;;;26.58;12.43;;;;;;;;;;5087540;28;20399;-50
2022/03/14 06:09:41;;;;;;;23.05;10.77;;;;;;;;;;5082397;28;20078;-47
2022/03/14 06:12:07;;;;;;;24.95;11.40;;;;;;;;;;5081246;28;20016;-47
2022/03/14 06:14:34;;;;;;;28.25;11.65;;;;;;;;;;5085171;28;20024;-47
2022/03/14 06:17:00;;;;;;;26.20;11.15;;;;;;;;;;5082384;28;20044;-47
2022/03/14 06:19:26;;;;;;;26.17;11.23;;;;;;;;;;5087192;28;20166;-49
2022/03/14 06:21:52;;;;;;;25.52;10.18;;;;;;;;;;5084731;28;20047;-47
2022/03/14 06:24:18;;;;;;;24.67;11.23;;;;;;;;;;5080047;28;20082;-49
2022/03/14 06:26:44;;;;;;;28.20;10.63;;;;;;;;;;5074408;28;20031;-48
2022/03/14 06:29:10;;;;;;;23.00;10.60;;;;;;;;;;5082119;28;20034;-52
2022/03/14 06:31:36;;;;;;;29.48;11.35;;;;;;;;;;5079855;28;20384;-48
2022/03/14 06:34:02;;;;;;;24.65;10.70;;;;;;;;;;5076805;28;20035;-48
2022/03/14 06:36:29;;;;;;;25.63;10.60;;;;;;;;;;5072214;28;20103;-48
2022/03/14 06:38:59;;;;;;;28.90;11.10;;;;;;;;;;5080050;28;20020;-47
2022/03/14 06:41:25;;;;;;;21.52;10.63;;;;;;;;;;5082634;28;20028;-48
2022/03/14 06:43:56;;;;;;;27.02;10.25;;;;;;;;;;5079358;28;20032;-48
2022/03/14 06:46:22;;;;;;;27.33;10.77;;;;;;;;;;5079272;28;20104;-47
2022/03/14 06:48:49;;;;;;;25.55;10.52;;;;;;;;;;5081888;28;20036;-48
2022/03/14 06:51:15;;;;;;;25.95;11.07;;;;;;;;;;5074888;28;20036;-47
2022/03/14 06:53:41;;;;;;;25.65;10.20;;;;;;;;;;5075137;28;20119;-49
2022/03/14 06:56:08;;;;;;;26.80;11.10;;;;;;;;;;5077318;28;20035;-48
2022/03/14 06:58:34;;;;;;;25.67;10.48;;;;;;;;;;5080319;28;20069;-50
2022/03/14 07:01:00;;;;;;;28.98;10.60;;;;;;;;;;5083634;28;20043;-47
2022/03/14 07:03:29;;;;;;;25.52;10.68;;;;;;;;;;5078892;28;20024;-47
2022/03/14 07:05:55;;;;;;;22.58;9.75;;;;;;;;;;5080327;28;20039;-47
2022/03/14 07:08:21;;;;;;;23.90;10.75;;;;;;;;;;5089235;28;20032;-47
2022/03/14 07:10:47;;;;;;;28.33;10.30;;;;;;;;;;5087634;28;20028;-51
2022/03/14 07:13:13;;;;;;;22.98;10.10;;;;;;;;;;5082865;28;20024;-51
2022/03/14 07:15:39;;;;;;;25.30;10.60;;;;;;;;;;5079973;28;20461;-49
2022/03/14 07:18:05;;;;;;;30.58;11.05;;;;;;;;;;5084416;28;20107;-48
2022/03/14 07:20:31;;;;;;;22.95;9.98;;;;;;;;;;5083019;28;20368;-48
2022/03/14 07:23:00;;;;;;;27.65;10.98;;;;;;;;;;5088366;28;20111;-47
2022/03/14 07:25:27;;;;;;;25.80;10.32;;;;;;;;;;5089424;28;20024;-49
2022/03/14 07:27:54;;;;;;;22.98;10.15;;;;;;;;;;5088659;28;20028;-49
2022/03/14 07:30:21;;;;;;;24.10;9.90;;;;;;;;;;5087660;28;20059;-50
2022/03/14 07:32:46;;;;;;;21.23;9.30;;;;;;;;;;5080779;28;20036;-47
2022/03/14 07:35:13;;;;;;;20.73;9.35;;;;;;;;;;5090590;28;20079;-48
2022/03/14 07:37:39;;;;;;;24.17;9.90;;;;;;;;;;5085041;28;20024;-47
2022/03/14 07:40:06;;;;;;;20.77;9.70;;;;;;;;;;5085463;28;20024;-48
2022/03/14 07:42:32;;;;;;;22.33;9.85;;;;;;;;;;5083227;28;20032;-48
2022/03/14 07:44:58;;;;;;;24.63;9.90;;;;;;;;;;5080113;28;20028;-48
2022/03/14 07:47:24;;;;;;;18.92;10.30;;;;;;;;;;5078672;28;20518;-49
2022/03/14 07:49:50;;;;;;;26.38;10.02;;;;;;;;;;5090814;28;20036;-48
2022/03/14 07:52:16;;;;;;;24.08;10.40;;;;;;;;;;5093313;28;20040;-48
2022/03/14 07:54:42;;;;;;;26.77;9.65;;;;;;;;;;5089975;28;20123;-49
2022/03/14 07:57:08;;;;;;;20.38;9.63;;;;;;;;;;5079948;28;20021;-49
2022/03/14 07:59:34;;;;;;;20.70;9.00;;;;;;;;;;5079903;28;20027;-48
2022/03/14 08:02:00;;;;;;;24.02;9.57;;;;;;;;;;5083952;28;20093;-51
2022/03/14 08:04:26;;;;;;;20.20;9.25;;;;;;;;;;5079502;28;20450;-49
2022/03/14 08:06:52;;;;;;;20.40;9.82;;;;;;;;;;5079033;28;20385;-52
2022/03/14 08:09:21;;;;;;;20.88;9.38;;;;;;;;;;5082536;28;20028;-48
2022/03/14 08:11:47;;;;;;;21.60;9.52;;;;;;;;;;5083224;28;20024;-48
2022/03/14 08:14:13;;;;;;;26.70;11.43;;;;;;;;;;5077081;28;20105;-48
2022/03/14 08:16:39;;;;;;;21.15;9.45;;;;;;;;;;5082940;28;20104;-53
2022/03/14 08:19:06;;;;;;;16.80;8.85;;;;;;;;;;5088068;28;20032;-48
2022/03/14 08:21:33;;;;;;;15.75;8.60;;;;;;;;;;5088141;28;20028;-50
2022/03/14 08:23:59;;;;;;;32.15;14.40;;;;;;;;;;5083041;28;20025;-46
2022/03/14 08:26:25;;;;;;;19.85;9.80;;;;;;;;;;5080649;28;20097;-46
2022/03/14 08:28:51;;;;;;;21.15;8.35;;;;;;;;;;5088840;28;20032;-46
2022/03/14 08:31:18;;;;;;;44.83;20.42;;;;;;;;;;5092905;28;20059;-46
2022/03/14 08:33:44;;;;;;;19.10;8.45;;;;;;;;;;5076604;28;20419;-46
2022/03/14 08:36:10;;;;;;;17.27;8.45;;;;;;;;;;5088839;28;20025;-46
2022/03/14 08:38:38;;;;;;;26.83;11.90;;;;;;;;;;5085628;28;20046;-46
2022/03/14 08:41:04;;;;;;;19.38;8.00;;;;;;;;;;5076814;28;20040;-46
2022/03/14 08:43:30;;;;;;;16.92;7.78;;;;;;;;;;5086709;28;20063;-47
2022/03/14 08:45:56;;;;;;;18.58;8.30;;;;;;;;;;5093357;28;20032;-49
2022/03/14 08:48:22;;;;;;;17.65;8.50;;;;;;;;;;5077121;28;20109;-50
2022/03/14 08:50:48;;;;;;;29.55;14.27;;;;;;;;;;5085073;28;20518;-49
2022/03/14 08:53:16;;;;;;;18.05;8.00;;;;;;;;;;5083560;28;20056;-46
2022/03/14 08:55:42;;;;;;;15.18;7.30;;;;;;;;;;5093506;28;20491;-47
2022/03/14 08:58:08;;;;;;;38.08;17.30;;;;;;;;;;5087450;28;20035;-48
2022/03/14 09:00:34;;;;;;;14.93;7.20;;;;;;;;;;5080541;28;20028;-49
2022/03/14 09:03:00;;;;;;;15.20;7.15;;;;;;;;;;5075067;28;20115;-50
2022/03/14 09:05:26;;;;;;;15.02;7.35;;;;;;;;;;5092791;28;20024;-48
2022/03/14 09:07:52;;;;;;;17.75;7.45;;;;;;;;;;5083131;28;20047;-48
2022/03/14 09:10:18;;;;;;;12.43;6.43;;;;;;;;;;5081102;28;20134;-48
2022/03/14 09:12:44;;;;;;;14.40;7.07;;;;;;;;;;5090432;28;20077;-48
2022/03/14 09:15:12;;;;;;;14.10;6.85;;;;;;;;;;5091409;28;20115;-46
2022/03/14 09:17:47;;;;;;;13.15;7.18;;;;;;;;;;5079563;28;20028;-47
2022/03/14 09:20:15;;;;;;;52.22;19.00;;;;;;;;;;5077032;28;20047;-47
2022/03/14 09:22:44;;;;;;;22.05;8.23;;;;;;;;;;5090292;28;20025;-46
2022/03/14 09:25:11;;;;;;;20.45;8.32;;;;;;;;;;5084939;28;20036;-47
2022/03/14 09:27:37;;;;;;;11.32;6.07;;;;;;;;;;5087496;28;20527;-49
2022/03/14 09:30:04;;;;;;;21.98;9.38;;;;;;;;;;5073120;28;20033;-49
2022/03/14 09:32:30;;;;;;;17.38;7.05;;;;;;;;;;5084156;28;20107;-53
2022/03/14 09:34:59;;;;;;;23.48;10.52;;;;;;;;;;5085445;28;20112;-52
2022/03/14 09:37:25;;;;;;;65.05;21.73;;;;;;;;;;5076925;28;20032;-50
2022/03/14 09:39:51;;;;;;;15.80;7.15;;;;;;;;;;5088662;28;20036;-50
2022/03/14 09:42:18;;;;;;;69.80;22.20;;;;;;;;;;5088537;28;20035;-49
2022/03/14 09:44:46;;;;;;;26.38;10.15;;;;;;;;;;5091789;28;20051;-47
2022/03/14 09:47:12;;;;;;;16.85;6.72;;;;;;;;;;5087684;28;20085;-47
2022/03/14 09:49:39;;;;;;;43.83;15.40;;;;;;;;;;5081847;28;20059;-48
2022/03/14 09:52:06;;;;;;;59.72;20.17;;;;;;;;;;5083767;28;20464;-47
2022/03/14 09:54:32;;;;;;;31.83;11.55;;;;;;;;;;5079867;28;20036;-51
2022/03/14 09:57:01;;;;;;;21.98;9.23;;;;;;;;;;5080917;28;20475;-47
2022/03/14 09:59:27;;;;;;;12.45;6.53;;;;;;;;;;5085829;28;20028;-51
2022/03/14 10:01:53;;;;;;;35.75;13.15;;;;;;;;;;5085753;28;20028;-48
2022/03/14 10:04:19;;;;;;;62.10;17.83;;;;;;;;;;5083990;28;20039;-48
2022/03/14 10:06:45;;;;;;;18.02;7.75;;;;;;;;;;5090835;28;20035;-48
2022/03/14 10:09:11;;;;;;;14.68;6.55;;;;;;;;;;5082676;28;20499;-49
2022/03/14 10:11:37;;;;;;;15.82;7.15;;;;;;;;;;5081974;28;20032;-49
2022/03/14 10:14:04;;;;;;;13.73;5.75;;;;;;;;;;5086648;28;20028;-48
2022/03/14 10:16:30;;;;;;;25.08;9.55;;;;;;;;;;5076730;28;20118;-49
2022/03/14 10:18:57;;;;;;;10.90;5.88;;;;;;;;;;5075944;28;20495;-51
2022/03/14 10:21:32;;;;;;;14.88;6.53;;;;;;;;;;5085627;28;20031;-48
2022/03/14 10:24:09;;;;;;;8.68;5.00;;;;;;;;;;5083308;28;20035;-47
2022/03/14 10:26:37;;;;;;;13.63;6.18;;;;;;;;;;5070788;28;20108;-47
2022/03/14 10:29:04;;;;;;;8.48;5.10;;;;;;;;;;5077229;28;20138;-48
2022/03/14 10:31:34;;;;;;;12.80;5.70;;;;;;;;;;5082838;28;20036;-48
2022/03/14 10:34:05;;;;;;;8.98;4.60;;;;;;;;;;5080539;28;20032;-52
2022/03/14 10:36:38;;;;;;;7.63;4.20;;;;;;;;;;5079968;28;20038;-50
2022/03/14 10:39:21;;;;;;;8.25;4.75;;;;;;;;;;5086220;28;20016;-48
2022/03/14 10:41:49;;;;;;;10.07;4.57;;;;;;;;;;5087448;28;20059;-50
2022/03/14 10:44:24;;;;;;;8.43;5.38;;;;;;;;;;5086396;28;20116;-49
2022/03/14 10:46:50;;;;;;;6.40;4.10;;;;;;;;;;5080802;28;20028;-51
2022/03/14 10:49:17;;;;;;;8.20;4.38;;;;;;;;;;5091909;28;20039;-50
2022/03/14 10:51:53;;;;;;;7.30;4.45;;;;;;;;;;5078898;28;20024;-52
2022/03/14 10:54:19;;;;;;;8.55;4.07;;;;;;;;;;5085334;28;20055;-52
2022/03/14 10:57:00;;;;;;;6.75;3.83;;;;;;;;;;5083361;28;20098;-49
2022/03/14 10:59:49;;;;;;;11.32;5.22;;;;;;;;;;5075717;28;20024;-51
2022/03/14 11:02:19;;;;;;;7.53;4.25;;;;;;;;;;5078914;28;20713;-53
2022/03/14 11:04:45;;;;;;;13.95;4.68;;;;;;;;;;5091181;28;20030;-52
2022/03/14 11:07:12;;;;;;;7.85;4.80;;;;;;;;;;5080485;28;20020;-48
2022/03/14 11:09:42;;;;;;;9.63;4.40;;;;;;;;;;5090260;28;20032;-50
2022/03/14 11:12:09;;;;;;;9.02;4.70;;;;;;;;;;5089406;28;20024;-49
2022/03/14 11:14:35;;;;;;;6.75;4.25;;;;;;;;;;5092103;28;20020;-49
2022/03/14 11:17:15;;;;;;;7.07;4.47;;;;;;;;;;5087503;28;20110;-52
2022/03/14 11:19:41;;;;;;;7.38;4.32;;;;;;;;;;5091068;28;20032;-48
2022/03/14 11:22:12;;;;;;;11.60;4.57;;;;;;;;;;5079487;28;20031;-48
2022/03/14 11:24:43;;;;;;;9.27;4.40;;;;;;;;;;5076188;28;20039;-47
2022/03/14 11:27:11;;;;;;;8.73;4.90;;;;;;;;;;5075097;28;20345;-49
2022/03/14 11:29:37;;;;;;;9.63;4.88;;;;;;;;;;5075091;28;20025;-52
2022/03/14 11:32:04;;;;;;;8.68;5.10;;;;;;;;;;5080718;28;20028;-48
2022/03/14 11:34:31;;;;;;;7.95;4.80;;;;;;;;;;5080075;28;20345;-49
2022/03/14 11:36:58;;;;;;;7.50;4.55;;;;;;;;;;5075519;28;20017;-49
2022/03/14 11:39:25;;;;;;;7.40;4.82;;;;;;;;;;5081001;28;20032;-47
2022/03/14 11:41:51;;;;;;;7.15;4.43;;;;;;;;;;5077606;28;20522;-48
2022/03/14 11:44:17;;;;;;;8.93;4.68;;;;;;;;;;5072065;28;20029;-49
2022/03/14 11:46:43;;;;;;;6.97;3.92;;;;;;;;;;5085499;28;20107;-48
2022/03/14 11:49:16;;;;;;;8.40;4.80;;;;;;;;;;5081218;28;20110;-52
2022/03/14 11:51:42;;;;;;;8.30;4.57;;;;;;;;;;5089049;28;20036;-48
2022/03/14 11:54:10;;;;;;;8.50;4.78;;;;;;;;;;5091630;28;20071;-49
2022/03/14 11:56:38;;;;;;;8.88;4.70;;;;;;;;;;5079341;28;20055;-47
2022/03/14 11:59:07;;;;;;;8.57;5.22;;;;;;;;;;5085989;28;20021;-48
2022/03/14 12:01:34;;;;;;;11.00;5.20;;;;;;;;;;5084063;28;20028;-49
2022/03/14 12:04:05;;;;;;;10.55;5.15;;;;;;;;;;5089652;28;20044;-49
2022/03/14 12:06:47;;;;;;;8.27;4.72;;;;;;;;;;5085892;28;20414;-48
2022/03/14 12:09:25;;;;;;;10.52;5.82;;;;;;;;;;5085507;28;20032;-52
2022/03/14 12:11:59;;;;;;;9.05;5.15;;;;;;;;;;5083537;28;20073;-49
2022/03/14 12:14:44;;;;;;;14.45;5.13;;;;;;;;;;5095197;28;20020;-50
2022/03/14 12:17:13;;;;;;;12.15;6.75;;;;;;;;;;5086189;28;20086;-52
2022/03/14 12:19:42;;;;;;;11.05;6.00;;;;;;;;;;5094640;28;20101;-47
2022/03/14 12:22:12;;;;;;;13.95;5.93;;;;;;;;;;5077331;28;20024;-48
2022/03/14 12:24:38;;;;;;;9.55;5.20;;;;;;;;;;5086073;28;20032;-48
2022/03/14 12:27:21;;;;;;;8.77;4.80;;;;;;;;;;5076859;28;20027;-49
2022/03/14 12:29:48;;;;;;;9.98;6.20;;;;;;;;;;5087408;28;20541;-50
2022/03/14 12:32:24;;;;;;;10.45;5.60;;;;;;;;;;5082275;28;20089;-47
2022/03/14 12:35:05;;;;;;;11.90;6.05;;;;;;;;;;5089830;28;20035;-49
2022/03/14 12:37:41;;;;;;;10.75;5.88;;;;;;;;;;5083020;28;20027;-50
2022/03/14 12:40:13;;;;;;;11.63;6.40;;;;;;;;;;5083067;28;20477;-48
2022/03/14 12:42:41;;;;;;;11.45;5.88;;;;;;;;;;5075116;28;20040;-48
2022/03/14 12:45:19;;;;;;;13.25;5.90;;;;;;;;;;5081095;28;20055;-50
2022/03/14 12:47:51;;;;;;;9.15;5.20;;;;;;;;;;5082342;28;20024;-51
2022/03/14 12:50:36;;;;;;;12.68;5.50;;;;;;;;;;5075812;28;20028;-51
2022/03/14 12:53:02;;;;;;;10.77;5.63;;;;;;;;;;5073730;28;20472;-50
2022/03/14 12:55:28;;;;;;;8.68;5.28;;;;;;;;;;5093257;28;20587;-51
2022/03/14 12:57:55;;;;;;;14.18;7.30;;;;;;;;;;5086606;28;20031;-52
2022/03/14 13:00:21;;;;;;;8.23;4.95;;;;;;;;;;5080099;28;20036;-50
2022/03/14 13:02:47;;;;;;;8.82;4.95;;;;;;;;;;5083919;28;20527;-51
2022/03/14 13:05:18;;;;;;;8.23;5.05;;;;;;;;;;5083071;28;20051;-49
2022/03/14 13:07:44;;;;;;;8.07;4.47;;;;;;;;;;5086726;28;20032;-51
2022/03/14 13:10:10;;;;;;;6.60;4.53;;;;;;;;;;5091222;28;20483;-52
2022/03/14 13:12:36;;;;;;;10.85;5.00;;;;;;;;;;5090785;28;20028;-49
2022/03/14 13:15:06;;;;;;;8.20;4.97;;;;;;;;;;5087417;28;20031;-52
2022/03/14 13:17:32;;;;;;;6.47;4.53;;;;;;;;;;5082533;28;20027;-48
2022/03/14 13:19:58;;;;;;;9.05;4.70;;;;;;;;;;5086510;28;20190;-48
2022/03/14 13:22:24;;;;;;;8.73;5.22;;;;;;;;;;5090670;28;20038;-50
2022/03/14 13:24:50;;;;;;;9.05;4.90;;;;;;;;;;5082295;28;20497;-51
2022/03/14 13:27:22;;;;;;;10.68;5.28;;;;;;;;;;5078717;28;20028;-50
2022/03/14 13:29:48;;;;;;;9.30;5.30;;;;;;;;;;5074398;28;20037;-49
2022/03/14 13:32:24;;;;;;;8.98;5.05;;;;;;;;;;5080411;28;20365;-52
2022/03/14 13:35:03;;;;;;;7.72;4.43;;;;;;;;;;5077895;28;20455;-49
2022/03/14 13:37:29;;;;;;;11.25;4.60;;;;;;;;;;5086590;28;20032;-49
2022/03/14 13:39:55;;;;;;;17.88;5.13;;;;;;;;;;5077339;28;20041;-50
2022/03/14 13:42:21;;;;;;;8.40;5.40;;;;;;;;;;5082942;28;20032;-49
2022/03/14 13:44:49;;;;;;;11.77;5.78;;;;;;;;;;5078564;28;20056;-47
2022/03/14 13:47:21;;;;;;;8.38;5.50;;;;;;;;;;5076934;28;20465;-50
2022/03/14 13:49:59;;;;;;;9.90;5.97;;;;;;;;;;5073085;28;20376;-48
2022/03/14 13:52:25;;;;;;;9.90;5.95;;;;;;;;;;5072445;28;20123;-48
2022/03/14 13:54:52;;;;;;;10.75;5.35;;;;;;;;;;5077090;28;20028;-50
2022/03/14 13:57:21;;;;;;;8.65;5.00;;;;;;;;;;5077879;28;20031;-49
2022/03/14 13:59:48;;;;;;;10.40;5.45;;;;;;;;;;5079088;28;20504;-52
2022/03/14 14:02:32;;;;;;;9.60;5.00;;;;;;;;;;5090224;28;20040;-53
2022/03/14 14:05:06;;;;;;;9.45;5.32;;;;;;;;;;5083163;28;20061;-47
2022/03/14 14:07:33;;;;;;;8.38;5.57;;;;;;;;;;5086925;28;20039;-48
2022/03/14 14:10:01;;;;;;;9.68;5.50;;;;;;;;;;5088523;28;20046;-54
2022/03/14 14:12:28;;;;;;;8.73;5.57;;;;;;;;;;5082825;28;20071;-48
2022/03/14 14:14:56;;;;;;;8.13;4.80;;;;;;;;;;5089990;28;20023;-50
2022/03/14 14:17:26;;;;;;;8.43;5.30;;;;;;;;;;5079705;28;20057;-49
2022/03/14 14:20:05;;;;;;;9.02;5.40;;;;;;;;;;5077495;28;20661;-51
2022/03/14 14:22:34;;;;;;;11.25;5.57;;;;;;;;;;5080954;28;20035;-47
2022/03/14 14:25:01;;;;;;;11.13;5.30;;;;;;;;;;5081695;28;20106;-52
2022/03/14 14:27:27;;;;;;;7.10;5.60;;;;;;;;;;5082076;28;20035;-50